<?xml version="1.0" encoding="UTF-8" standalone="no" ?>
<gpx xmlns="http://www.topografix.com/GPX/1/1" xmlns:xsi="http://www.w3.org/2001/XMLSchema-instance" xsi:schemaLocation="http://www.topografix.com/GPX/1/1 http://www.topografix.com/GPX/1/1/gpx.xsd" version="1.1" creator="VisuGPX - https://www.visugpx.com">
  <metadata>
    <name>1er jour rando cheval ete 2011dans la chaine des puys jpm63</name>
    <desc><![CDATA[1er jour rando cheval ete 2011dans la chaine des puys jpm63]]></desc>
  </metadata>
  <trk>
    <name><![CDATA[110808]]></name>
    <trkseg>
      <trkpt lat="45.68675" lon="3.16263">
        <ele>428</ele>
        <time>2011-08-08T09:20:33Z</time>
      </trkpt>
      <trkpt lat="45.68688" lon="3.16298">
        <ele>424</ele>
        <time>2011-08-08T09:21:30Z</time>
      </trkpt>
      <trkpt lat="45.68752" lon="3.16261">
        <ele>419</ele>
        <time>2011-08-08T09:21:54Z</time>
      </trkpt>
      <trkpt lat="45.68844" lon="3.16297">
        <ele>418</ele>
        <time>2011-08-08T09:22:31Z</time>
      </trkpt>
      <trkpt lat="45.68862" lon="3.16285">
        <ele>415</ele>
        <time>2011-08-08T09:22:44Z</time>
      </trkpt>
      <trkpt lat="45.68893" lon="3.16254">
        <ele>415</ele>
        <time>2011-08-08T09:23:13Z</time>
      </trkpt>
      <trkpt lat="45.68912" lon="3.16247">
        <ele>414</ele>
        <time>2011-08-08T09:23:30Z</time>
      </trkpt>
      <trkpt lat="45.69079" lon="3.16312">
        <ele>398</ele>
        <time>2011-08-08T09:25:37Z</time>
      </trkpt>
      <trkpt lat="45.69103" lon="3.1631">
        <ele>398</ele>
        <time>2011-08-08T09:25:54Z</time>
      </trkpt>
      <trkpt lat="45.69119" lon="3.16258">
        <ele>399</ele>
        <time>2011-08-08T09:26:24Z</time>
      </trkpt>
      <trkpt lat="45.69173" lon="3.16226">
        <ele>396</ele>
        <time>2011-08-08T09:27:00Z</time>
      </trkpt>
      <trkpt lat="45.69189" lon="3.16211">
        <ele>395</ele>
        <time>2011-08-08T09:27:12Z</time>
      </trkpt>
      <trkpt lat="45.69201" lon="3.16188">
        <ele>394</ele>
        <time>2011-08-08T09:27:25Z</time>
      </trkpt>
      <trkpt lat="45.69232" lon="3.15997">
        <ele>389</ele>
        <time>2011-08-08T09:28:55Z</time>
      </trkpt>
      <trkpt lat="45.69251" lon="3.1595">
        <ele>386</ele>
        <time>2011-08-08T09:29:19Z</time>
      </trkpt>
      <trkpt lat="45.693" lon="3.15907">
        <ele>381</ele>
        <time>2011-08-08T09:29:56Z</time>
      </trkpt>
      <trkpt lat="45.69395" lon="3.15849">
        <ele>378</ele>
        <time>2011-08-08T09:31:07Z</time>
      </trkpt>
      <trkpt lat="45.69425" lon="3.15851">
        <ele>378</ele>
        <time>2011-08-08T09:31:21Z</time>
      </trkpt>
      <trkpt lat="45.69442" lon="3.15858">
        <ele>377</ele>
        <time>2011-08-08T09:31:42Z</time>
      </trkpt>
      <trkpt lat="45.69549" lon="3.15838">
        <ele>377</ele>
        <time>2011-08-08T09:32:43Z</time>
      </trkpt>
      <trkpt lat="45.6954" lon="3.15787">
        <ele>378</ele>
        <time>2011-08-08T09:33:09Z</time>
      </trkpt>
      <trkpt lat="45.69546" lon="3.15726">
        <ele>378</ele>
        <time>2011-08-08T09:33:37Z</time>
      </trkpt>
      <trkpt lat="45.69528" lon="3.15448">
        <ele>381</ele>
        <time>2011-08-08T09:35:38Z</time>
      </trkpt>
      <trkpt lat="45.69531" lon="3.15419">
        <ele>381</ele>
        <time>2011-08-08T09:35:52Z</time>
      </trkpt>
      <trkpt lat="45.69549" lon="3.15358">
        <ele>382</ele>
        <time>2011-08-08T09:36:22Z</time>
      </trkpt>
      <trkpt lat="45.69577" lon="3.15127">
        <ele>384</ele>
        <time>2011-08-08T09:38:21Z</time>
      </trkpt>
      <trkpt lat="45.69608" lon="3.15016">
        <ele>386</ele>
        <time>2011-08-08T09:39:26Z</time>
      </trkpt>
      <trkpt lat="45.69582" lon="3.14994">
        <ele>387</ele>
        <time>2011-08-08T09:39:41Z</time>
      </trkpt>
      <trkpt lat="45.69491" lon="3.14935">
        <ele>390</ele>
        <time>2011-08-08T09:40:39Z</time>
      </trkpt>
      <trkpt lat="45.69481" lon="3.14914">
        <ele>392</ele>
        <time>2011-08-08T09:40:57Z</time>
      </trkpt>
      <trkpt lat="45.69504" lon="3.149">
        <ele>393</ele>
        <time>2011-08-08T09:41:14Z</time>
      </trkpt>
      <trkpt lat="45.69556" lon="3.14898">
        <ele>392</ele>
        <time>2011-08-08T09:41:39Z</time>
      </trkpt>
      <trkpt lat="45.69599" lon="3.14887">
        <ele>392</ele>
        <time>2011-08-08T09:42:02Z</time>
      </trkpt>
      <trkpt lat="45.69661" lon="3.14861">
        <ele>391</ele>
        <time>2011-08-08T09:42:41Z</time>
      </trkpt>
      <trkpt lat="45.69677" lon="3.14839">
        <ele>391</ele>
        <time>2011-08-08T09:42:57Z</time>
      </trkpt>
      <trkpt lat="45.69675" lon="3.14773">
        <ele>393</ele>
        <time>2011-08-08T09:43:31Z</time>
      </trkpt>
      <trkpt lat="45.69693" lon="3.14613">
        <ele>395</ele>
        <time>2011-08-08T09:44:58Z</time>
      </trkpt>
      <trkpt lat="45.69703" lon="3.14583">
        <ele>395</ele>
        <time>2011-08-08T09:45:15Z</time>
      </trkpt>
      <trkpt lat="45.69695" lon="3.1452">
        <ele>396</ele>
        <time>2011-08-08T09:45:50Z</time>
      </trkpt>
      <trkpt lat="45.69699" lon="3.14457">
        <ele>398</ele>
        <time>2011-08-08T09:46:25Z</time>
      </trkpt>
      <trkpt lat="45.69693" lon="3.14385">
        <ele>400</ele>
        <time>2011-08-08T09:47:03Z</time>
      </trkpt>
      <trkpt lat="45.69697" lon="3.14346">
        <ele>401</ele>
        <time>2011-08-08T09:48:43Z</time>
      </trkpt>
      <trkpt lat="45.69718" lon="3.14253">
        <ele>402</ele>
        <time>2011-08-08T09:49:03Z</time>
      </trkpt>
      <trkpt lat="45.6974" lon="3.14075">
        <ele>404</ele>
        <time>2011-08-08T09:49:57Z</time>
      </trkpt>
      <trkpt lat="45.69768" lon="3.13986">
        <ele>406</ele>
        <time>2011-08-08T09:50:10Z</time>
      </trkpt>
      <trkpt lat="45.69782" lon="3.13887">
        <ele>406</ele>
        <time>2011-08-08T09:50:22Z</time>
      </trkpt>
      <trkpt lat="45.69806" lon="3.13792">
        <ele>407</ele>
        <time>2011-08-08T09:50:34Z</time>
      </trkpt>
      <trkpt lat="45.69858" lon="3.13649">
        <ele>408</ele>
        <time>2011-08-08T09:50:52Z</time>
      </trkpt>
      <trkpt lat="45.69864" lon="3.13496">
        <ele>410</ele>
        <time>2011-08-08T09:51:12Z</time>
      </trkpt>
      <trkpt lat="45.69857" lon="3.1343">
        <ele>412</ele>
        <time>2011-08-08T09:51:27Z</time>
      </trkpt>
      <trkpt lat="45.69865" lon="3.13353">
        <ele>414</ele>
        <time>2011-08-08T09:51:37Z</time>
      </trkpt>
      <trkpt lat="45.69864" lon="3.13248">
        <ele>416</ele>
        <time>2011-08-08T09:51:48Z</time>
      </trkpt>
      <trkpt lat="45.69852" lon="3.1315">
        <ele>417</ele>
        <time>2011-08-08T09:52:03Z</time>
      </trkpt>
      <trkpt lat="45.69829" lon="3.13103">
        <ele>418</ele>
        <time>2011-08-08T09:52:28Z</time>
      </trkpt>
      <trkpt lat="45.69799" lon="3.13059">
        <ele>421</ele>
        <time>2011-08-08T09:52:57Z</time>
      </trkpt>
      <trkpt lat="45.6979" lon="3.13068">
        <ele>422</ele>
        <time>2011-08-08T09:53:15Z</time>
      </trkpt>
      <trkpt lat="45.69795" lon="3.1313">
        <ele>421</ele>
        <time>2011-08-08T09:53:44Z</time>
      </trkpt>
      <trkpt lat="45.69782" lon="3.13154">
        <ele>423</ele>
        <time>2011-08-08T09:54:00Z</time>
      </trkpt>
      <trkpt lat="45.69697" lon="3.1317">
        <ele>432</ele>
        <time>2011-08-08T09:55:04Z</time>
      </trkpt>
      <trkpt lat="45.69651" lon="3.13187">
        <ele>438</ele>
        <time>2011-08-08T09:55:43Z</time>
      </trkpt>
      <trkpt lat="45.69596" lon="3.1321">
        <ele>446</ele>
        <time>2011-08-08T09:56:28Z</time>
      </trkpt>
      <trkpt lat="45.69542" lon="3.13244">
        <ele>454</ele>
        <time>2011-08-08T09:57:22Z</time>
      </trkpt>
      <trkpt lat="45.69496" lon="3.13288">
        <ele>459</ele>
        <time>2011-08-08T09:58:04Z</time>
      </trkpt>
      <trkpt lat="45.69483" lon="3.1328">
        <ele>462</ele>
        <time>2011-08-08T09:58:25Z</time>
      </trkpt>
      <trkpt lat="45.69481" lon="3.13104">
        <ele>462</ele>
        <time>2011-08-08T10:00:03Z</time>
      </trkpt>
      <trkpt lat="45.69493" lon="3.12941">
        <ele>461</ele>
        <time>2011-08-08T10:01:38Z</time>
      </trkpt>
      <trkpt lat="45.69437" lon="3.12899">
        <ele>467</ele>
        <time>2011-08-08T10:02:08Z</time>
      </trkpt>
      <trkpt lat="45.69395" lon="3.12894">
        <ele>472</ele>
        <time>2011-08-08T10:02:25Z</time>
      </trkpt>
      <trkpt lat="45.69382" lon="3.12879">
        <ele>474</ele>
        <time>2011-08-08T10:02:37Z</time>
      </trkpt>
      <trkpt lat="45.69415" lon="3.12807">
        <ele>471</ele>
        <time>2011-08-08T10:03:17Z</time>
      </trkpt>
      <trkpt lat="45.69445" lon="3.12698">
        <ele>468</ele>
        <time>2011-08-08T10:04:10Z</time>
      </trkpt>
      <trkpt lat="45.6949" lon="3.12423">
        <ele>469</ele>
        <time>2011-08-08T10:06:25Z</time>
      </trkpt>
      <trkpt lat="45.69493" lon="3.12356">
        <ele>467</ele>
        <time>2011-08-08T10:06:56Z</time>
      </trkpt>
      <trkpt lat="45.69518" lon="3.12262">
        <ele>461</ele>
        <time>2011-08-08T10:07:42Z</time>
      </trkpt>
      <trkpt lat="45.69502" lon="3.12251">
        <ele>463</ele>
        <time>2011-08-08T10:07:58Z</time>
      </trkpt>
      <trkpt lat="45.69463" lon="3.12272">
        <ele>468</ele>
        <time>2011-08-08T10:08:31Z</time>
      </trkpt>
      <trkpt lat="45.69365" lon="3.1227">
        <ele>481</ele>
        <time>2011-08-08T10:09:43Z</time>
      </trkpt>
      <trkpt lat="45.69308" lon="3.12243">
        <ele>489</ele>
        <time>2011-08-08T10:10:28Z</time>
      </trkpt>
      <trkpt lat="45.69288" lon="3.12228">
        <ele>492</ele>
        <time>2011-08-08T10:10:45Z</time>
      </trkpt>
      <trkpt lat="45.69299" lon="3.12104">
        <ele>491</ele>
        <time>2011-08-08T10:11:20Z</time>
      </trkpt>
      <trkpt lat="45.69292" lon="3.12018">
        <ele>492</ele>
        <time>2011-08-08T10:11:43Z</time>
      </trkpt>
      <trkpt lat="45.69298" lon="3.12">
        <ele>492</ele>
        <time>2011-08-08T10:11:57Z</time>
      </trkpt>
      <trkpt lat="45.69473" lon="3.11967">
        <ele>468</ele>
        <time>2011-08-08T10:13:54Z</time>
      </trkpt>
      <trkpt lat="45.69516" lon="3.11953">
        <ele>460</ele>
        <time>2011-08-08T10:14:25Z</time>
      </trkpt>
      <trkpt lat="45.69539" lon="3.11952">
        <ele>456</ele>
        <time>2011-08-08T10:14:40Z</time>
      </trkpt>
      <trkpt lat="45.69556" lon="3.11961">
        <ele>454</ele>
        <time>2011-08-08T10:15:38Z</time>
      </trkpt>
      <trkpt lat="45.69611" lon="3.11936">
        <ele>443</ele>
        <time>2011-08-08T10:16:25Z</time>
      </trkpt>
      <trkpt lat="45.69683" lon="3.119">
        <ele>442</ele>
        <time>2011-08-08T10:17:31Z</time>
      </trkpt>
      <trkpt lat="45.69761" lon="3.119">
        <ele>445</ele>
        <time>2011-08-08T10:18:22Z</time>
      </trkpt>
      <trkpt lat="45.69782" lon="3.11906">
        <ele>446</ele>
        <time>2011-08-08T10:18:37Z</time>
      </trkpt>
      <trkpt lat="45.69833" lon="3.11895">
        <ele>449</ele>
        <time>2011-08-08T10:19:19Z</time>
      </trkpt>
      <trkpt lat="45.69854" lon="3.11842">
        <ele>451</ele>
        <time>2011-08-08T10:19:54Z</time>
      </trkpt>
      <trkpt lat="45.69853" lon="3.11802">
        <ele>452</ele>
        <time>2011-08-08T10:20:15Z</time>
      </trkpt>
      <trkpt lat="45.69834" lon="3.11656">
        <ele>459</ele>
        <time>2011-08-08T10:21:27Z</time>
      </trkpt>
      <trkpt lat="45.69811" lon="3.11541">
        <ele>464</ele>
        <time>2011-08-08T10:22:27Z</time>
      </trkpt>
      <trkpt lat="45.6982" lon="3.11521">
        <ele>468</ele>
        <time>2011-08-08T10:22:42Z</time>
      </trkpt>
      <trkpt lat="45.69884" lon="3.11482">
        <ele>480</ele>
        <time>2011-08-08T10:23:34Z</time>
      </trkpt>
      <trkpt lat="45.69919" lon="3.11438">
        <ele>484</ele>
        <time>2011-08-08T10:24:10Z</time>
      </trkpt>
      <trkpt lat="45.69961" lon="3.11421">
        <ele>491</ele>
        <time>2011-08-08T10:24:42Z</time>
      </trkpt>
      <trkpt lat="45.7008" lon="3.11301">
        <ele>513</ele>
        <time>2011-08-08T10:26:42Z</time>
      </trkpt>
      <trkpt lat="45.701" lon="3.1129">
        <ele>517</ele>
        <time>2011-08-08T10:27:00Z</time>
      </trkpt>
      <trkpt lat="45.70121" lon="3.11292">
        <ele>522</ele>
        <time>2011-08-08T10:27:18Z</time>
      </trkpt>
      <trkpt lat="45.70134" lon="3.11269">
        <ele>526</ele>
        <time>2011-08-08T10:27:36Z</time>
      </trkpt>
      <trkpt lat="45.70155" lon="3.11177">
        <ele>537</ele>
        <time>2011-08-08T10:28:33Z</time>
      </trkpt>
      <trkpt lat="45.70221" lon="3.111">
        <ele>550</ele>
        <time>2011-08-08T10:29:50Z</time>
      </trkpt>
      <trkpt lat="45.7022" lon="3.11038">
        <ele>551</ele>
        <time>2011-08-08T10:30:26Z</time>
      </trkpt>
      <trkpt lat="45.70211" lon="3.11007">
        <ele>550</ele>
        <time>2011-08-08T10:30:44Z</time>
      </trkpt>
      <trkpt lat="45.7021" lon="3.1098">
        <ele>552</ele>
        <time>2011-08-08T10:31:02Z</time>
      </trkpt>
      <trkpt lat="45.70231" lon="3.10979">
        <ele>555</ele>
        <time>2011-08-08T10:31:24Z</time>
      </trkpt>
      <trkpt lat="45.70248" lon="3.10996">
        <ele>558</ele>
        <time>2011-08-08T10:31:43Z</time>
      </trkpt>
      <trkpt lat="45.7026" lon="3.11048">
        <ele>562</ele>
        <time>2011-08-08T10:32:18Z</time>
      </trkpt>
      <trkpt lat="45.70277" lon="3.11032">
        <ele>565</ele>
        <time>2011-08-08T10:32:36Z</time>
      </trkpt>
      <trkpt lat="45.70323" lon="3.11008">
        <ele>571</ele>
        <time>2011-08-08T10:33:20Z</time>
      </trkpt>
      <trkpt lat="45.70367" lon="3.11002">
        <ele>579</ele>
        <time>2011-08-08T10:33:58Z</time>
      </trkpt>
      <trkpt lat="45.70416" lon="3.11005">
        <ele>588</ele>
        <time>2011-08-08T10:34:44Z</time>
      </trkpt>
      <trkpt lat="45.70483" lon="3.1096">
        <ele>597</ele>
        <time>2011-08-08T10:35:57Z</time>
      </trkpt>
      <trkpt lat="45.70519" lon="3.10923">
        <ele>605</ele>
        <time>2011-08-08T10:36:43Z</time>
      </trkpt>
      <trkpt lat="45.70548" lon="3.10872">
        <ele>612</ele>
        <time>2011-08-08T10:37:31Z</time>
      </trkpt>
      <trkpt lat="45.70595" lon="3.1082">
        <ele>627</ele>
        <time>2011-08-08T10:38:53Z</time>
      </trkpt>
      <trkpt lat="45.70618" lon="3.10815">
        <ele>633</ele>
        <time>2011-08-08T10:39:16Z</time>
      </trkpt>
      <trkpt lat="45.7064" lon="3.10795">
        <ele>637</ele>
        <time>2011-08-08T10:39:46Z</time>
      </trkpt>
      <trkpt lat="45.70669" lon="3.1076">
        <ele>643</ele>
        <time>2011-08-08T10:40:25Z</time>
      </trkpt>
      <trkpt lat="45.70674" lon="3.10733">
        <ele>645</ele>
        <time>2011-08-08T10:40:43Z</time>
      </trkpt>
      <trkpt lat="45.70701" lon="3.10695">
        <ele>652</ele>
        <time>2011-08-08T10:41:17Z</time>
      </trkpt>
      <trkpt lat="45.70739" lon="3.10694">
        <ele>658</ele>
        <time>2011-08-08T10:41:54Z</time>
      </trkpt>
      <trkpt lat="45.70774" lon="3.10669">
        <ele>661</ele>
        <time>2011-08-08T10:42:31Z</time>
      </trkpt>
      <trkpt lat="45.70791" lon="3.1065">
        <ele>663</ele>
        <time>2011-08-08T10:42:49Z</time>
      </trkpt>
      <trkpt lat="45.70802" lon="3.10626">
        <ele>667</ele>
        <time>2011-08-08T10:43:08Z</time>
      </trkpt>
      <trkpt lat="45.70836" lon="3.10602">
        <ele>674</ele>
        <time>2011-08-08T10:43:37Z</time>
      </trkpt>
      <trkpt lat="45.70903" lon="3.10528">
        <ele>689</ele>
        <time>2011-08-08T10:44:40Z</time>
      </trkpt>
      <trkpt lat="45.71004" lon="3.10428">
        <ele>691</ele>
        <time>2011-08-08T10:45:03Z</time>
      </trkpt>
      <trkpt lat="45.71076" lon="3.10343">
        <ele>691</ele>
        <time>2011-08-08T10:45:17Z</time>
      </trkpt>
      <trkpt lat="45.71131" lon="3.10302">
        <ele>691</ele>
        <time>2011-08-08T10:45:49Z</time>
      </trkpt>
      <trkpt lat="45.71165" lon="3.10267">
        <ele>691</ele>
        <time>2011-08-08T10:46:07Z</time>
      </trkpt>
      <trkpt lat="45.7118" lon="3.10246">
        <ele>692</ele>
        <time>2011-08-08T10:46:11Z</time>
      </trkpt>
      <trkpt lat="45.71229" lon="3.10155">
        <ele>693</ele>
        <time>2011-08-08T10:46:24Z</time>
      </trkpt>
      <trkpt lat="45.71254" lon="3.10129">
        <ele>695</ele>
        <time>2011-08-08T10:46:28Z</time>
      </trkpt>
      <trkpt lat="45.71298" lon="3.10099">
        <ele>698</ele>
        <time>2011-08-08T10:46:36Z</time>
      </trkpt>
      <trkpt lat="45.71323" lon="3.10098">
        <ele>698</ele>
        <time>2011-08-08T10:46:41Z</time>
      </trkpt>
      <trkpt lat="45.71369" lon="3.10107">
        <ele>699</ele>
        <time>2011-08-08T10:46:49Z</time>
      </trkpt>
      <trkpt lat="45.71417" lon="3.10039">
        <ele>700</ele>
        <time>2011-08-08T10:47:10Z</time>
      </trkpt>
      <trkpt lat="45.71443" lon="3.09989">
        <ele>696</ele>
        <time>2011-08-08T10:47:43Z</time>
      </trkpt>
      <trkpt lat="45.71465" lon="3.09959">
        <ele>692</ele>
        <time>2011-08-08T10:48:02Z</time>
      </trkpt>
      <trkpt lat="45.71465" lon="3.0993">
        <ele>690</ele>
        <time>2011-08-08T10:48:28Z</time>
      </trkpt>
      <trkpt lat="45.71439" lon="3.09898">
        <ele>689</ele>
        <time>2011-08-08T10:49:00Z</time>
      </trkpt>
      <trkpt lat="45.71421" lon="3.09861">
        <ele>689</ele>
        <time>2011-08-08T10:49:26Z</time>
      </trkpt>
      <trkpt lat="45.71423" lon="3.09787">
        <ele>687</ele>
        <time>2011-08-08T10:50:10Z</time>
      </trkpt>
      <trkpt lat="45.71391" lon="3.09682">
        <ele>688</ele>
        <time>2011-08-08T10:51:06Z</time>
      </trkpt>
      <trkpt lat="45.71385" lon="3.0964">
        <ele>688</ele>
        <time>2011-08-08T10:51:22Z</time>
      </trkpt>
      <trkpt lat="45.71389" lon="3.09576">
        <ele>686</ele>
        <time>2011-08-08T10:51:48Z</time>
      </trkpt>
      <trkpt lat="45.71367" lon="3.09507">
        <ele>682</ele>
        <time>2011-08-08T10:52:17Z</time>
      </trkpt>
      <trkpt lat="45.71331" lon="3.09429">
        <ele>677</ele>
        <time>2011-08-08T10:52:53Z</time>
      </trkpt>
      <trkpt lat="45.71263" lon="3.0932">
        <ele>668</ele>
        <time>2011-08-08T10:53:48Z</time>
      </trkpt>
      <trkpt lat="45.71219" lon="3.09264">
        <ele>667</ele>
        <time>2011-08-08T10:54:23Z</time>
      </trkpt>
      <trkpt lat="45.71157" lon="3.09159">
        <ele>661</ele>
        <time>2011-08-08T10:55:21Z</time>
      </trkpt>
      <trkpt lat="45.71134" lon="3.09117">
        <ele>662</ele>
        <time>2011-08-08T10:55:43Z</time>
      </trkpt>
      <trkpt lat="45.71125" lon="3.09093">
        <ele>662</ele>
        <time>2011-08-08T10:55:54Z</time>
      </trkpt>
      <trkpt lat="45.71124" lon="3.09068">
        <ele>662</ele>
        <time>2011-08-08T10:56:08Z</time>
      </trkpt>
      <trkpt lat="45.71095" lon="3.09029">
        <ele>662</ele>
        <time>2011-08-08T10:56:35Z</time>
      </trkpt>
      <trkpt lat="45.7109" lon="3.09005">
        <ele>662</ele>
        <time>2011-08-08T10:56:48Z</time>
      </trkpt>
      <trkpt lat="45.71104" lon="3.08838">
        <ele>664</ele>
        <time>2011-08-08T10:58:09Z</time>
      </trkpt>
      <trkpt lat="45.71097" lon="3.08784">
        <ele>668</ele>
        <time>2011-08-08T10:58:36Z</time>
      </trkpt>
      <trkpt lat="45.71065" lon="3.08594">
        <ele>680</ele>
        <time>2011-08-08T11:00:13Z</time>
      </trkpt>
      <trkpt lat="45.71012" lon="3.08444">
        <ele>694</ele>
        <time>2011-08-08T11:01:40Z</time>
      </trkpt>
      <trkpt lat="45.71023" lon="3.08273">
        <ele>701</ele>
        <time>2011-08-08T11:03:12Z</time>
      </trkpt>
      <trkpt lat="45.71058" lon="3.08189">
        <ele>706</ele>
        <time>2011-08-08T11:03:33Z</time>
      </trkpt>
      <trkpt lat="45.71065" lon="3.08158">
        <ele>707</ele>
        <time>2011-08-08T11:03:37Z</time>
      </trkpt>
      <trkpt lat="45.71061" lon="3.08118">
        <ele>708</ele>
        <time>2011-08-08T11:03:41Z</time>
      </trkpt>
      <trkpt lat="45.71003" lon="3.07945">
        <ele>706</ele>
        <time>2011-08-08T11:04:03Z</time>
      </trkpt>
      <trkpt lat="45.70986" lon="3.07877">
        <ele>708</ele>
        <time>2011-08-08T11:04:12Z</time>
      </trkpt>
      <trkpt lat="45.70979" lon="3.07804">
        <ele>710</ele>
        <time>2011-08-08T11:04:20Z</time>
      </trkpt>
      <trkpt lat="45.7096" lon="3.07738">
        <ele>709</ele>
        <time>2011-08-08T11:04:28Z</time>
      </trkpt>
      <trkpt lat="45.70957" lon="3.07648">
        <ele>704</ele>
        <time>2011-08-08T11:04:49Z</time>
      </trkpt>
      <trkpt lat="45.7095" lon="3.07581">
        <ele>699</ele>
        <time>2011-08-08T11:05:15Z</time>
      </trkpt>
      <trkpt lat="45.70906" lon="3.07457">
        <ele>693</ele>
        <time>2011-08-08T11:06:16Z</time>
      </trkpt>
      <trkpt lat="45.70905" lon="3.07394">
        <ele>694</ele>
        <time>2011-08-08T11:06:47Z</time>
      </trkpt>
      <trkpt lat="45.70882" lon="3.07338">
        <ele>695</ele>
        <time>2011-08-08T11:07:17Z</time>
      </trkpt>
      <trkpt lat="45.70872" lon="3.07235">
        <ele>701</ele>
        <time>2011-08-08T11:08:16Z</time>
      </trkpt>
      <trkpt lat="45.70863" lon="3.07163">
        <ele>699</ele>
        <time>2011-08-08T11:08:50Z</time>
      </trkpt>
      <trkpt lat="45.70852" lon="3.07132">
        <ele>698</ele>
        <time>2011-08-08T11:09:08Z</time>
      </trkpt>
      <trkpt lat="45.70838" lon="3.07061">
        <ele>697</ele>
        <time>2011-08-08T11:09:43Z</time>
      </trkpt>
      <trkpt lat="45.70794" lon="3.06951">
        <ele>699</ele>
        <time>2011-08-08T11:10:39Z</time>
      </trkpt>
      <trkpt lat="45.70762" lon="3.0684">
        <ele>694</ele>
        <time>2011-08-08T11:11:41Z</time>
      </trkpt>
      <trkpt lat="45.70764" lon="3.06803">
        <ele>693</ele>
        <time>2011-08-08T11:12:06Z</time>
      </trkpt>
      <trkpt lat="45.70781" lon="3.06716">
        <ele>695</ele>
        <time>2011-08-08T11:12:44Z</time>
      </trkpt>
      <trkpt lat="45.70814" lon="3.06723">
        <ele>690</ele>
        <time>2011-08-08T11:13:32Z</time>
      </trkpt>
      <trkpt lat="45.70859" lon="3.06718">
        <ele>684</ele>
        <time>2011-08-08T11:14:03Z</time>
      </trkpt>
      <trkpt lat="45.70882" lon="3.06725">
        <ele>683</ele>
        <time>2011-08-08T11:14:20Z</time>
      </trkpt>
      <trkpt lat="45.71003" lon="3.06794">
        <ele>665</ele>
        <time>2011-08-08T11:15:48Z</time>
      </trkpt>
      <trkpt lat="45.71032" lon="3.06759">
        <ele>669</ele>
        <time>2011-08-08T11:16:24Z</time>
      </trkpt>
      <trkpt lat="45.71017" lon="3.06779">
        <ele>667</ele>
        <time>2011-08-08T11:16:39Z</time>
      </trkpt>
      <trkpt lat="45.71016" lon="3.06801">
        <ele>664</ele>
        <time>2011-08-08T11:16:53Z</time>
      </trkpt>
      <trkpt lat="45.71107" lon="3.06872">
        <ele>659</ele>
        <time>2011-08-08T11:17:58Z</time>
      </trkpt>
      <trkpt lat="45.71134" lon="3.06914">
        <ele>659</ele>
        <time>2011-08-08T11:18:26Z</time>
      </trkpt>
      <trkpt lat="45.71154" lon="3.06931">
        <ele>655</ele>
        <time>2011-08-08T11:18:41Z</time>
      </trkpt>
      <trkpt lat="45.71175" lon="3.06938">
        <ele>657</ele>
        <time>2011-08-08T11:18:56Z</time>
      </trkpt>
      <trkpt lat="45.71195" lon="3.06956">
        <ele>655</ele>
        <time>2011-08-08T11:19:22Z</time>
      </trkpt>
      <trkpt lat="45.71212" lon="3.06941">
        <ele>656</ele>
        <time>2011-08-08T11:19:54Z</time>
      </trkpt>
      <trkpt lat="45.71223" lon="3.06917">
        <ele>656</ele>
        <time>2011-08-08T11:20:11Z</time>
      </trkpt>
      <trkpt lat="45.71337" lon="3.06875">
        <ele>652</ele>
        <time>2011-08-08T11:21:35Z</time>
      </trkpt>
      <trkpt lat="45.71334" lon="3.06814">
        <ele>651</ele>
        <time>2011-08-08T11:22:06Z</time>
      </trkpt>
      <trkpt lat="45.71339" lon="3.06783">
        <ele>650</ele>
        <time>2011-08-08T11:22:21Z</time>
      </trkpt>
      <trkpt lat="45.71353" lon="3.06761">
        <ele>649</ele>
        <time>2011-08-08T11:22:38Z</time>
      </trkpt>
      <trkpt lat="45.71371" lon="3.06746">
        <ele>648</ele>
        <time>2011-08-08T11:22:54Z</time>
      </trkpt>
      <trkpt lat="45.71413" lon="3.06675">
        <ele>644</ele>
        <time>2011-08-08T11:23:42Z</time>
      </trkpt>
      <trkpt lat="45.71457" lon="3.06633">
        <ele>641</ele>
        <time>2011-08-08T11:24:27Z</time>
      </trkpt>
      <trkpt lat="45.71478" lon="3.06603">
        <ele>640</ele>
        <time>2011-08-08T11:24:46Z</time>
      </trkpt>
      <trkpt lat="45.71533" lon="3.06551">
        <ele>639</ele>
        <time>2011-08-08T11:25:32Z</time>
      </trkpt>
      <trkpt lat="45.71572" lon="3.06527">
        <ele>640</ele>
        <time>2011-08-08T11:26:01Z</time>
      </trkpt>
      <trkpt lat="45.71594" lon="3.06529">
        <ele>637</ele>
        <time>2011-08-08T11:26:17Z</time>
      </trkpt>
      <trkpt lat="45.71614" lon="3.06538">
        <ele>634</ele>
        <time>2011-08-08T11:26:30Z</time>
      </trkpt>
      <trkpt lat="45.71737" lon="3.06614">
        <ele>626</ele>
        <time>2011-08-08T11:28:06Z</time>
      </trkpt>
      <trkpt lat="45.71767" lon="3.06621">
        <ele>623</ele>
        <time>2011-08-08T11:28:32Z</time>
      </trkpt>
      <trkpt lat="45.71795" lon="3.06607">
        <ele>619</ele>
        <time>2011-08-08T11:28:54Z</time>
      </trkpt>
      <trkpt lat="45.71803" lon="3.06634">
        <ele>618</ele>
        <time>2011-08-08T11:29:12Z</time>
      </trkpt>
      <trkpt lat="45.7184" lon="3.06693">
        <ele>617</ele>
        <time>2011-08-08T11:29:51Z</time>
      </trkpt>
      <trkpt lat="45.71862" lon="3.0671">
        <ele>617</ele>
        <time>2011-08-08T11:30:10Z</time>
      </trkpt>
      <trkpt lat="45.71975" lon="3.06727">
        <ele>612</ele>
        <time>2011-08-08T11:31:35Z</time>
      </trkpt>
      <trkpt lat="45.72089" lon="3.06714">
        <ele>608</ele>
        <time>2011-08-08T11:32:54Z</time>
      </trkpt>
      <trkpt lat="45.72155" lon="3.06697">
        <ele>603</ele>
        <time>2011-08-08T11:33:43Z</time>
      </trkpt>
      <trkpt lat="45.72196" lon="3.06705">
        <ele>598</ele>
        <time>2011-08-08T11:34:14Z</time>
      </trkpt>
      <trkpt lat="45.72219" lon="3.06622">
        <ele>606</ele>
        <time>2011-08-08T11:35:07Z</time>
      </trkpt>
      <trkpt lat="45.72214" lon="3.06562">
        <ele>614</ele>
        <time>2011-08-08T11:35:43Z</time>
      </trkpt>
      <trkpt lat="45.72202" lon="3.06521">
        <ele>618</ele>
        <time>2011-08-08T11:36:05Z</time>
      </trkpt>
      <trkpt lat="45.72154" lon="3.06488">
        <ele>626</ele>
        <time>2011-08-08T11:36:55Z</time>
      </trkpt>
      <trkpt lat="45.72195" lon="3.06423">
        <ele>634</ele>
        <time>2011-08-08T11:40:02Z</time>
      </trkpt>
      <trkpt lat="45.72227" lon="3.06394">
        <ele>638</ele>
        <time>2011-08-08T11:40:31Z</time>
      </trkpt>
      <trkpt lat="45.72204" lon="3.06394">
        <ele>642</ele>
        <time>2011-08-08T11:40:52Z</time>
      </trkpt>
      <trkpt lat="45.72157" lon="3.06406">
        <ele>646</ele>
        <time>2011-08-08T11:41:28Z</time>
      </trkpt>
      <trkpt lat="45.72108" lon="3.06405">
        <ele>648</ele>
        <time>2011-08-08T11:42:06Z</time>
      </trkpt>
      <trkpt lat="45.721" lon="3.0639">
        <ele>652</ele>
        <time>2011-08-08T11:42:30Z</time>
      </trkpt>
      <trkpt lat="45.72138" lon="3.06381">
        <ele>654</ele>
        <time>2011-08-08T11:43:00Z</time>
      </trkpt>
      <trkpt lat="45.7217" lon="3.06355">
        <ele>660</ele>
        <time>2011-08-08T11:43:29Z</time>
      </trkpt>
      <trkpt lat="45.72159" lon="3.06339">
        <ele>664</ele>
        <time>2011-08-08T11:43:56Z</time>
      </trkpt>
      <trkpt lat="45.72138" lon="3.06343">
        <ele>664</ele>
        <time>2011-08-08T11:44:11Z</time>
      </trkpt>
      <trkpt lat="45.7206" lon="3.06316">
        <ele>672</ele>
        <time>2011-08-08T11:45:21Z</time>
      </trkpt>
      <trkpt lat="45.72057" lon="3.06303">
        <ele>676</ele>
        <time>2011-08-08T11:45:43Z</time>
      </trkpt>
      <trkpt lat="45.72094" lon="3.06309">
        <ele>678</ele>
        <time>2011-08-08T11:46:14Z</time>
      </trkpt>
      <trkpt lat="45.72124" lon="3.06302">
        <ele>680</ele>
        <time>2011-08-08T11:46:34Z</time>
      </trkpt>
      <trkpt lat="45.72166" lon="3.06282">
        <ele>685</ele>
        <time>2011-08-08T11:47:11Z</time>
      </trkpt>
      <trkpt lat="45.72251" lon="3.06207">
        <ele>692</ele>
        <time>2011-08-08T11:48:29Z</time>
      </trkpt>
      <trkpt lat="45.7224" lon="3.06183">
        <ele>696</ele>
        <time>2011-08-08T11:48:41Z</time>
      </trkpt>
      <trkpt lat="45.72223" lon="3.06161">
        <ele>695</ele>
        <time>2011-08-08T11:48:51Z</time>
      </trkpt>
      <trkpt lat="45.72204" lon="3.06092">
        <ele>696</ele>
        <time>2011-08-08T11:49:12Z</time>
      </trkpt>
      <trkpt lat="45.72161" lon="3.0603">
        <ele>691</ele>
        <time>2011-08-08T11:49:36Z</time>
      </trkpt>
      <trkpt lat="45.72203" lon="3.05992">
        <ele>680</ele>
        <time>2011-08-08T11:50:21Z</time>
      </trkpt>
      <trkpt lat="45.7224" lon="3.06003">
        <ele>676</ele>
        <time>2011-08-08T11:50:45Z</time>
      </trkpt>
      <trkpt lat="45.72261" lon="3.06033">
        <ele>670</ele>
        <time>2011-08-08T11:51:09Z</time>
      </trkpt>
      <trkpt lat="45.72253" lon="3.0606">
        <ele>668</ele>
        <time>2011-08-08T11:51:25Z</time>
      </trkpt>
      <trkpt lat="45.72254" lon="3.06098">
        <ele>664</ele>
        <time>2011-08-08T11:51:43Z</time>
      </trkpt>
      <trkpt lat="45.72285" lon="3.06127">
        <ele>659</ele>
        <time>2011-08-08T11:52:10Z</time>
      </trkpt>
      <trkpt lat="45.72331" lon="3.06202">
        <ele>648</ele>
        <time>2011-08-08T11:53:02Z</time>
      </trkpt>
      <trkpt lat="45.7239" lon="3.06265">
        <ele>640</ele>
        <time>2011-08-08T11:53:59Z</time>
      </trkpt>
      <trkpt lat="45.72346" lon="3.06188">
        <ele>632</ele>
        <time>2011-08-08T11:55:00Z</time>
      </trkpt>
      <trkpt lat="45.72329" lon="3.06113">
        <ele>625</ele>
        <time>2011-08-08T11:55:34Z</time>
      </trkpt>
      <trkpt lat="45.72327" lon="3.06012">
        <ele>618</ele>
        <time>2011-08-08T11:56:25Z</time>
      </trkpt>
      <trkpt lat="45.72321" lon="3.05982">
        <ele>616</ele>
        <time>2011-08-08T11:56:45Z</time>
      </trkpt>
      <trkpt lat="45.72284" lon="3.05932">
        <ele>613</ele>
        <time>2011-08-08T11:57:19Z</time>
      </trkpt>
      <trkpt lat="45.72279" lon="3.05906">
        <ele>615</ele>
        <time>2011-08-08T11:57:39Z</time>
      </trkpt>
      <trkpt lat="45.72245" lon="3.05855">
        <ele>621</ele>
        <time>2011-08-08T11:58:05Z</time>
      </trkpt>
      <trkpt lat="45.72202" lon="3.05771">
        <ele>631</ele>
        <time>2011-08-08T11:58:18Z</time>
      </trkpt>
      <trkpt lat="45.72158" lon="3.05731">
        <ele>634</ele>
        <time>2011-08-08T11:58:28Z</time>
      </trkpt>
      <trkpt lat="45.72121" lon="3.05565">
        <ele>642</ele>
        <time>2011-08-08T11:58:51Z</time>
      </trkpt>
      <trkpt lat="45.7209" lon="3.05513">
        <ele>645</ele>
        <time>2011-08-08T11:58:59Z</time>
      </trkpt>
      <trkpt lat="45.72068" lon="3.05455">
        <ele>654</ele>
        <time>2011-08-08T11:59:07Z</time>
      </trkpt>
      <trkpt lat="45.7205" lon="3.05395">
        <ele>656</ele>
        <time>2011-08-08T11:59:36Z</time>
      </trkpt>
      <trkpt lat="45.72052" lon="3.05318">
        <ele>656</ele>
        <time>2011-08-08T12:00:11Z</time>
      </trkpt>
      <trkpt lat="45.7206" lon="3.05282">
        <ele>658</ele>
        <time>2011-08-08T12:00:29Z</time>
      </trkpt>
      <trkpt lat="45.72043" lon="3.05225">
        <ele>661</ele>
        <time>2011-08-08T12:00:48Z</time>
      </trkpt>
      <trkpt lat="45.71976" lon="3.05172">
        <ele>666</ele>
        <time>2011-08-08T12:01:01Z</time>
      </trkpt>
      <trkpt lat="45.71953" lon="3.05158">
        <ele>668</ele>
        <time>2011-08-08T12:01:05Z</time>
      </trkpt>
      <trkpt lat="45.7193" lon="3.05137">
        <ele>670</ele>
        <time>2011-08-08T12:01:10Z</time>
      </trkpt>
      <trkpt lat="45.71913" lon="3.05111">
        <ele>673</ele>
        <time>2011-08-08T12:01:15Z</time>
      </trkpt>
      <trkpt lat="45.71907" lon="3.05079">
        <ele>672</ele>
        <time>2011-08-08T12:01:24Z</time>
      </trkpt>
      <trkpt lat="45.71898" lon="3.05065">
        <ele>672</ele>
        <time>2011-08-08T12:01:37Z</time>
      </trkpt>
      <trkpt lat="45.71875" lon="3.04998">
        <ele>675</ele>
        <time>2011-08-08T12:02:01Z</time>
      </trkpt>
      <trkpt lat="45.71819" lon="3.04879">
        <ele>685</ele>
        <time>2011-08-08T12:02:37Z</time>
      </trkpt>
      <trkpt lat="45.71788" lon="3.04832">
        <ele>690</ele>
        <time>2011-08-08T12:02:50Z</time>
      </trkpt>
      <trkpt lat="45.7176" lon="3.04755">
        <ele>695</ele>
        <time>2011-08-08T12:03:13Z</time>
      </trkpt>
      <trkpt lat="45.71752" lon="3.0469">
        <ele>701</ele>
        <time>2011-08-08T12:03:50Z</time>
      </trkpt>
      <trkpt lat="45.71721" lon="3.04634">
        <ele>708</ele>
        <time>2011-08-08T12:04:16Z</time>
      </trkpt>
      <trkpt lat="45.71712" lon="3.04588">
        <ele>710</ele>
        <time>2011-08-08T12:04:36Z</time>
      </trkpt>
      <trkpt lat="45.71708" lon="3.04485">
        <ele>715</ele>
        <time>2011-08-08T12:05:26Z</time>
      </trkpt>
      <trkpt lat="45.71687" lon="3.04381">
        <ele>718</ele>
        <time>2011-08-08T12:06:03Z</time>
      </trkpt>
      <trkpt lat="45.71662" lon="3.04314">
        <ele>720</ele>
        <time>2011-08-08T12:06:18Z</time>
      </trkpt>
      <trkpt lat="45.71659" lon="3.04264">
        <ele>715</ele>
        <time>2011-08-08T12:06:52Z</time>
      </trkpt>
      <trkpt lat="45.71666" lon="3.04213">
        <ele>717</ele>
        <time>2011-08-08T12:07:29Z</time>
      </trkpt>
      <trkpt lat="45.71625" lon="3.04127">
        <ele>729</ele>
        <time>2011-08-08T12:08:25Z</time>
      </trkpt>
      <trkpt lat="45.71605" lon="3.04103">
        <ele>734</ele>
        <time>2011-08-08T12:08:42Z</time>
      </trkpt>
      <trkpt lat="45.71596" lon="3.04022">
        <ele>742</ele>
        <time>2011-08-08T12:09:29Z</time>
      </trkpt>
      <trkpt lat="45.71583" lon="3.0398">
        <ele>742</ele>
        <time>2011-08-08T12:10:22Z</time>
      </trkpt>
      <trkpt lat="45.71587" lon="3.03941">
        <ele>753</ele>
        <time>2011-08-08T12:10:52Z</time>
      </trkpt>
      <trkpt lat="45.716" lon="3.03888">
        <ele>760</ele>
        <time>2011-08-08T12:11:43Z</time>
      </trkpt>
      <trkpt lat="45.71588" lon="3.03864">
        <ele>760</ele>
        <time>2011-08-08T12:13:01Z</time>
      </trkpt>
      <trkpt lat="45.71607" lon="3.03742">
        <ele>764</ele>
        <time>2011-08-08T12:14:24Z</time>
      </trkpt>
      <trkpt lat="45.71585" lon="3.03719">
        <ele>766</ele>
        <time>2011-08-08T12:14:45Z</time>
      </trkpt>
      <trkpt lat="45.71569" lon="3.03691">
        <ele>771</ele>
        <time>2011-08-08T12:15:15Z</time>
      </trkpt>
      <trkpt lat="45.71575" lon="3.0368">
        <ele>776</ele>
        <time>2011-08-08T12:15:44Z</time>
      </trkpt>
      <trkpt lat="45.71621" lon="3.03694">
        <ele>779</ele>
        <time>2011-08-08T12:16:25Z</time>
      </trkpt>
      <trkpt lat="45.7165" lon="3.03713">
        <ele>783</ele>
        <time>2011-08-08T12:16:51Z</time>
      </trkpt>
      <trkpt lat="45.71677" lon="3.03766">
        <ele>788</ele>
        <time>2011-08-08T12:17:28Z</time>
      </trkpt>
      <trkpt lat="45.71684" lon="3.03827">
        <ele>792</ele>
        <time>2011-08-08T12:18:03Z</time>
      </trkpt>
      <trkpt lat="45.71701" lon="3.03884">
        <ele>800</ele>
        <time>2011-08-08T12:18:37Z</time>
      </trkpt>
      <trkpt lat="45.71725" lon="3.03932">
        <ele>803</ele>
        <time>2011-08-08T12:19:09Z</time>
      </trkpt>
      <trkpt lat="45.71743" lon="3.03947">
        <ele>806</ele>
        <time>2011-08-08T12:19:24Z</time>
      </trkpt>
      <trkpt lat="45.71794" lon="3.03933">
        <ele>810</ele>
        <time>2011-08-08T12:20:11Z</time>
      </trkpt>
      <trkpt lat="45.71825" lon="3.03944">
        <ele>806</ele>
        <time>2011-08-08T12:20:36Z</time>
      </trkpt>
      <trkpt lat="45.71857" lon="3.03957">
        <ele>811</ele>
        <time>2011-08-08T12:20:49Z</time>
      </trkpt>
      <trkpt lat="45.71913" lon="3.04025">
        <ele>813</ele>
        <time>2011-08-08T12:21:13Z</time>
      </trkpt>
      <trkpt lat="45.71934" lon="3.04009">
        <ele>815</ele>
        <time>2011-08-08T12:21:22Z</time>
      </trkpt>
      <trkpt lat="45.71957" lon="3.04025">
        <ele>816</ele>
        <time>2011-08-08T12:21:29Z</time>
      </trkpt>
      <trkpt lat="45.72002" lon="3.04042">
        <ele>820</ele>
        <time>2011-08-08T12:21:43Z</time>
      </trkpt>
      <trkpt lat="45.72053" lon="3.04015">
        <ele>825</ele>
        <time>2011-08-08T12:22:17Z</time>
      </trkpt>
      <trkpt lat="45.72086" lon="3.04006">
        <ele>826</ele>
        <time>2011-08-08T12:22:28Z</time>
      </trkpt>
      <trkpt lat="45.72112" lon="3.04023">
        <ele>827</ele>
        <time>2011-08-08T12:22:39Z</time>
      </trkpt>
      <trkpt lat="45.72106" lon="3.0409">
        <ele>829</ele>
        <time>2011-08-08T12:22:54Z</time>
      </trkpt>
      <trkpt lat="45.72109" lon="3.04119">
        <ele>831</ele>
        <time>2011-08-08T12:22:59Z</time>
      </trkpt>
      <trkpt lat="45.72146" lon="3.04281">
        <ele>843</ele>
        <time>2011-08-08T12:25:05Z</time>
      </trkpt>
      <trkpt lat="45.72164" lon="3.04333">
        <ele>842</ele>
        <time>2011-08-08T12:25:37Z</time>
      </trkpt>
      <trkpt lat="45.72215" lon="3.04383">
        <ele>844</ele>
        <time>2011-08-08T12:26:23Z</time>
      </trkpt>
      <trkpt lat="45.72269" lon="3.04476">
        <ele>839</ele>
        <time>2011-08-08T12:27:21Z</time>
      </trkpt>
      <trkpt lat="45.72286" lon="3.04494">
        <ele>839</ele>
        <time>2011-08-08T12:27:35Z</time>
      </trkpt>
      <trkpt lat="45.72336" lon="3.04511">
        <ele>836</ele>
        <time>2011-08-08T12:28:12Z</time>
      </trkpt>
      <trkpt lat="45.72354" lon="3.0453">
        <ele>836</ele>
        <time>2011-08-08T12:28:28Z</time>
      </trkpt>
      <trkpt lat="45.72374" lon="3.04514">
        <ele>840</ele>
        <time>2011-08-08T12:28:45Z</time>
      </trkpt>
      <trkpt lat="45.72395" lon="3.04515">
        <ele>839</ele>
        <time>2011-08-08T12:29:00Z</time>
      </trkpt>
      <trkpt lat="45.72429" lon="3.04544">
        <ele>843</ele>
        <time>2011-08-08T12:29:26Z</time>
      </trkpt>
      <trkpt lat="45.72451" lon="3.04549">
        <ele>844</ele>
        <time>2011-08-08T12:29:41Z</time>
      </trkpt>
      <trkpt lat="45.72473" lon="3.0454">
        <ele>845</ele>
        <time>2011-08-08T12:31:37Z</time>
      </trkpt>
      <trkpt lat="45.72474" lon="3.04513">
        <ele>846</ele>
        <time>2011-08-08T12:31:53Z</time>
      </trkpt>
      <trkpt lat="45.72436" lon="3.04445">
        <ele>847</ele>
        <time>2011-08-08T12:32:41Z</time>
      </trkpt>
      <trkpt lat="45.7244" lon="3.04417">
        <ele>848</ele>
        <time>2011-08-08T12:32:55Z</time>
      </trkpt>
      <trkpt lat="45.72483" lon="3.04359">
        <ele>847</ele>
        <time>2011-08-08T12:33:45Z</time>
      </trkpt>
      <trkpt lat="45.72521" lon="3.04338">
        <ele>846</ele>
        <time>2011-08-08T12:34:13Z</time>
      </trkpt>
      <trkpt lat="45.72589" lon="3.04323">
        <ele>845</ele>
        <time>2011-08-08T12:35:06Z</time>
      </trkpt>
      <trkpt lat="45.72674" lon="3.04285">
        <ele>841</ele>
        <time>2011-08-08T12:36:00Z</time>
      </trkpt>
      <trkpt lat="45.72742" lon="3.0424">
        <ele>835</ele>
        <time>2011-08-08T12:36:40Z</time>
      </trkpt>
      <trkpt lat="45.72804" lon="3.04177">
        <ele>834</ele>
        <time>2011-08-08T12:37:27Z</time>
      </trkpt>
      <trkpt lat="45.72821" lon="3.04166">
        <ele>832</ele>
        <time>2011-08-08T12:37:40Z</time>
      </trkpt>
      <trkpt lat="45.7284" lon="3.04163">
        <ele>830</ele>
        <time>2011-08-08T12:37:53Z</time>
      </trkpt>
      <trkpt lat="45.72861" lon="3.04172">
        <ele>829</ele>
        <time>2011-08-08T12:38:04Z</time>
      </trkpt>
      <trkpt lat="45.72904" lon="3.04166">
        <ele>825</ele>
        <time>2011-08-08T12:38:13Z</time>
      </trkpt>
      <trkpt lat="45.7292" lon="3.04145">
        <ele>824</ele>
        <time>2011-08-08T12:38:17Z</time>
      </trkpt>
      <trkpt lat="45.72921" lon="3.0411">
        <ele>825</ele>
        <time>2011-08-08T12:38:21Z</time>
      </trkpt>
      <trkpt lat="45.72966" lon="3.04039">
        <ele>824</ele>
        <time>2011-08-08T12:38:32Z</time>
      </trkpt>
      <trkpt lat="45.72976" lon="3.04014">
        <ele>828</ele>
        <time>2011-08-08T12:38:35Z</time>
      </trkpt>
      <trkpt lat="45.72997" lon="3.04006">
        <ele>831</ele>
        <time>2011-08-08T12:38:39Z</time>
      </trkpt>
      <trkpt lat="45.73017" lon="3.04011">
        <ele>830</ele>
        <time>2011-08-08T12:38:42Z</time>
      </trkpt>
      <trkpt lat="45.73033" lon="3.04001">
        <ele>834</ele>
        <time>2011-08-08T12:38:45Z</time>
      </trkpt>
      <trkpt lat="45.73042" lon="3.03952">
        <ele>836</ele>
        <time>2011-08-08T12:39:01Z</time>
      </trkpt>
      <trkpt lat="45.7309" lon="3.03906">
        <ele>837</ele>
        <time>2011-08-08T12:39:31Z</time>
      </trkpt>
      <trkpt lat="45.73113" lon="3.03894">
        <ele>838</ele>
        <time>2011-08-08T12:39:36Z</time>
      </trkpt>
      <trkpt lat="45.73158" lon="3.03888">
        <ele>838</ele>
        <time>2011-08-08T12:39:43Z</time>
      </trkpt>
      <trkpt lat="45.7318" lon="3.0389">
        <ele>839</ele>
        <time>2011-08-08T12:39:47Z</time>
      </trkpt>
      <trkpt lat="45.73201" lon="3.0388">
        <ele>839</ele>
        <time>2011-08-08T12:40:14Z</time>
      </trkpt>
      <trkpt lat="45.73227" lon="3.03764">
        <ele>834</ele>
        <time>2011-08-08T12:40:29Z</time>
      </trkpt>
      <trkpt lat="45.73255" lon="3.03688">
        <ele>837</ele>
        <time>2011-08-08T12:40:38Z</time>
      </trkpt>
      <trkpt lat="45.73293" lon="3.03616">
        <ele>840</ele>
        <time>2011-08-08T12:40:48Z</time>
      </trkpt>
      <trkpt lat="45.73348" lon="3.03553">
        <ele>842</ele>
        <time>2011-08-08T12:41:00Z</time>
      </trkpt>
      <trkpt lat="45.73388" lon="3.03532">
        <ele>846</ele>
        <time>2011-08-08T12:41:15Z</time>
      </trkpt>
      <trkpt lat="45.73404" lon="3.03518">
        <ele>848</ele>
        <time>2011-08-08T12:41:28Z</time>
      </trkpt>
      <trkpt lat="45.73427" lon="3.03461">
        <ele>851</ele>
        <time>2011-08-08T12:41:57Z</time>
      </trkpt>
      <trkpt lat="45.73471" lon="3.03426">
        <ele>848</ele>
        <time>2011-08-08T12:47:25Z</time>
      </trkpt>
      <trkpt lat="45.73461" lon="3.03431">
        <ele>849</ele>
        <time>2011-08-08T12:54:06Z</time>
      </trkpt>
      <trkpt lat="45.73471" lon="3.03421">
        <ele>852</ele>
        <time>2011-08-08T13:34:21Z</time>
      </trkpt>
      <trkpt lat="45.73468" lon="3.03427">
        <ele>848</ele>
        <time>2011-08-08T13:38:30Z</time>
      </trkpt>
      <trkpt lat="45.73472" lon="3.03429">
        <ele>850</ele>
        <time>2011-08-08T13:41:47Z</time>
      </trkpt>
      <trkpt lat="45.73495" lon="3.03421">
        <ele>846</ele>
        <time>2011-08-08T13:42:05Z</time>
      </trkpt>
      <trkpt lat="45.73528" lon="3.03375">
        <ele>842</ele>
        <time>2011-08-08T13:42:50Z</time>
      </trkpt>
      <trkpt lat="45.73546" lon="3.0336">
        <ele>834</ele>
        <time>2011-08-08T13:43:11Z</time>
      </trkpt>
      <trkpt lat="45.73549" lon="3.0333">
        <ele>831</ele>
        <time>2011-08-08T13:43:29Z</time>
      </trkpt>
      <trkpt lat="45.73541" lon="3.03296">
        <ele>826</ele>
        <time>2011-08-08T13:43:47Z</time>
      </trkpt>
      <trkpt lat="45.73539" lon="3.03253">
        <ele>826</ele>
        <time>2011-08-08T13:44:05Z</time>
      </trkpt>
      <trkpt lat="45.73555" lon="3.03214">
        <ele>828</ele>
        <time>2011-08-08T13:44:21Z</time>
      </trkpt>
      <trkpt lat="45.73576" lon="3.03186">
        <ele>829</ele>
        <time>2011-08-08T13:44:30Z</time>
      </trkpt>
      <trkpt lat="45.73604" lon="3.03118">
        <ele>829</ele>
        <time>2011-08-08T13:44:53Z</time>
      </trkpt>
      <trkpt lat="45.73612" lon="3.03076">
        <ele>826</ele>
        <time>2011-08-08T13:45:01Z</time>
      </trkpt>
      <trkpt lat="45.73613" lon="3.03022">
        <ele>824</ele>
        <time>2011-08-08T13:45:06Z</time>
      </trkpt>
      <trkpt lat="45.73634" lon="3.02952">
        <ele>824</ele>
        <time>2011-08-08T13:45:13Z</time>
      </trkpt>
      <trkpt lat="45.73634" lon="3.02909">
        <ele>824</ele>
        <time>2011-08-08T13:45:19Z</time>
      </trkpt>
      <trkpt lat="45.73641" lon="3.0287">
        <ele>822</ele>
        <time>2011-08-08T13:45:24Z</time>
      </trkpt>
      <trkpt lat="45.73672" lon="3.02831">
        <ele>824</ele>
        <time>2011-08-08T13:45:30Z</time>
      </trkpt>
      <trkpt lat="45.73727" lon="3.028">
        <ele>833</ele>
        <time>2011-08-08T13:45:41Z</time>
      </trkpt>
      <trkpt lat="45.73757" lon="3.02756">
        <ele>838</ele>
        <time>2011-08-08T13:45:56Z</time>
      </trkpt>
      <trkpt lat="45.73767" lon="3.02728">
        <ele>838</ele>
        <time>2011-08-08T13:46:04Z</time>
      </trkpt>
      <trkpt lat="45.7377" lon="3.0267">
        <ele>840</ele>
        <time>2011-08-08T13:46:32Z</time>
      </trkpt>
      <trkpt lat="45.73753" lon="3.02616">
        <ele>839</ele>
        <time>2011-08-08T13:46:59Z</time>
      </trkpt>
      <trkpt lat="45.73751" lon="3.02589">
        <ele>841</ele>
        <time>2011-08-08T13:47:14Z</time>
      </trkpt>
      <trkpt lat="45.73767" lon="3.02569">
        <ele>845</ele>
        <time>2011-08-08T13:47:32Z</time>
      </trkpt>
      <trkpt lat="45.73778" lon="3.02543">
        <ele>849</ele>
        <time>2011-08-08T13:47:51Z</time>
      </trkpt>
      <trkpt lat="45.73832" lon="3.0254">
        <ele>847</ele>
        <time>2011-08-08T13:48:26Z</time>
      </trkpt>
      <trkpt lat="45.73865" lon="3.02511">
        <ele>845</ele>
        <time>2011-08-08T13:48:57Z</time>
      </trkpt>
      <trkpt lat="45.73908" lon="3.02458">
        <ele>836</ele>
        <time>2011-08-08T13:49:35Z</time>
      </trkpt>
      <trkpt lat="45.73922" lon="3.02356">
        <ele>825</ele>
        <time>2011-08-08T13:50:18Z</time>
      </trkpt>
      <trkpt lat="45.73914" lon="3.02326">
        <ele>824</ele>
        <time>2011-08-08T13:50:32Z</time>
      </trkpt>
      <trkpt lat="45.73942" lon="3.02288">
        <ele>824</ele>
        <time>2011-08-08T13:51:06Z</time>
      </trkpt>
      <trkpt lat="45.74002" lon="3.02222">
        <ele>833</ele>
        <time>2011-08-08T13:51:57Z</time>
      </trkpt>
      <trkpt lat="45.74046" lon="3.02182">
        <ele>842</ele>
        <time>2011-08-08T13:52:37Z</time>
      </trkpt>
      <trkpt lat="45.74084" lon="3.02105">
        <ele>851</ele>
        <time>2011-08-08T13:53:22Z</time>
      </trkpt>
      <trkpt lat="45.741" lon="3.02089">
        <ele>853</ele>
        <time>2011-08-08T13:53:33Z</time>
      </trkpt>
      <trkpt lat="45.74116" lon="3.02043">
        <ele>858</ele>
        <time>2011-08-08T13:54:01Z</time>
      </trkpt>
      <trkpt lat="45.74153" lon="3.02043">
        <ele>861</ele>
        <time>2011-08-08T13:54:23Z</time>
      </trkpt>
      <trkpt lat="45.74159" lon="3.02021">
        <ele>861</ele>
        <time>2011-08-08T13:54:32Z</time>
      </trkpt>
      <trkpt lat="45.74127" lon="3.01942">
        <ele>857</ele>
        <time>2011-08-08T13:54:46Z</time>
      </trkpt>
      <trkpt lat="45.7413" lon="3.01915">
        <ele>858</ele>
        <time>2011-08-08T13:54:50Z</time>
      </trkpt>
      <trkpt lat="45.74182" lon="3.01758">
        <ele>860</ele>
        <time>2011-08-08T13:55:20Z</time>
      </trkpt>
      <trkpt lat="45.74206" lon="3.01591">
        <ele>869</ele>
        <time>2011-08-08T13:56:45Z</time>
      </trkpt>
      <trkpt lat="45.74238" lon="3.01446">
        <ele>878</ele>
        <time>2011-08-08T13:58:05Z</time>
      </trkpt>
      <trkpt lat="45.74288" lon="3.01314">
        <ele>880</ele>
        <time>2011-08-08T13:59:21Z</time>
      </trkpt>
      <trkpt lat="45.74287" lon="3.01254">
        <ele>881</ele>
        <time>2011-08-08T13:59:50Z</time>
      </trkpt>
      <trkpt lat="45.74271" lon="3.01131">
        <ele>880</ele>
        <time>2011-08-08T14:00:53Z</time>
      </trkpt>
      <trkpt lat="45.74204" lon="3.01146">
        <ele>887</ele>
        <time>2011-08-08T14:01:44Z</time>
      </trkpt>
      <trkpt lat="45.74183" lon="3.01136">
        <ele>889</ele>
        <time>2011-08-08T14:02:00Z</time>
      </trkpt>
      <trkpt lat="45.74131" lon="3.01086">
        <ele>894</ele>
        <time>2011-08-08T14:02:42Z</time>
      </trkpt>
      <trkpt lat="45.74111" lon="3.01079">
        <ele>897</ele>
        <time>2011-08-08T14:03:06Z</time>
      </trkpt>
      <trkpt lat="45.74093" lon="3.01076">
        <ele>898</ele>
        <time>2011-08-08T14:03:20Z</time>
      </trkpt>
      <trkpt lat="45.74048" lon="3.01081">
        <ele>899</ele>
        <time>2011-08-08T14:03:29Z</time>
      </trkpt>
      <trkpt lat="45.7394" lon="3.01063">
        <ele>906</ele>
        <time>2011-08-08T14:03:47Z</time>
      </trkpt>
      <trkpt lat="45.73824" lon="3.01016">
        <ele>902</ele>
        <time>2011-08-08T14:04:13Z</time>
      </trkpt>
      <trkpt lat="45.73763" lon="3.01002">
        <ele>902</ele>
        <time>2011-08-08T14:04:23Z</time>
      </trkpt>
      <trkpt lat="45.73723" lon="3.01004">
        <ele>904</ele>
        <time>2011-08-08T14:04:29Z</time>
      </trkpt>
      <trkpt lat="45.73699" lon="3.01016">
        <ele>906</ele>
        <time>2011-08-08T14:04:33Z</time>
      </trkpt>
      <trkpt lat="45.73623" lon="3.01096">
        <ele>914</ele>
        <time>2011-08-08T14:04:48Z</time>
      </trkpt>
      <trkpt lat="45.73581" lon="3.01109">
        <ele>920</ele>
        <time>2011-08-08T14:05:10Z</time>
      </trkpt>
      <trkpt lat="45.73518" lon="3.01071">
        <ele>928</ele>
        <time>2011-08-08T14:05:43Z</time>
      </trkpt>
      <trkpt lat="45.73436" lon="3.01044">
        <ele>932</ele>
        <time>2011-08-08T14:06:42Z</time>
      </trkpt>
      <trkpt lat="45.73411" lon="3.00993">
        <ele>934</ele>
        <time>2011-08-08T14:07:08Z</time>
      </trkpt>
      <trkpt lat="45.7342" lon="3.0091">
        <ele>937</ele>
        <time>2011-08-08T14:07:46Z</time>
      </trkpt>
      <trkpt lat="45.73382" lon="3.00891">
        <ele>936</ele>
        <time>2011-08-08T14:08:19Z</time>
      </trkpt>
      <trkpt lat="45.73377" lon="3.00824">
        <ele>937</ele>
        <time>2011-08-08T14:08:32Z</time>
      </trkpt>
      <trkpt lat="45.73424" lon="3.00711">
        <ele>939</ele>
        <time>2011-08-08T14:08:46Z</time>
      </trkpt>
      <trkpt lat="45.73449" lon="3.00663">
        <ele>943</ele>
        <time>2011-08-08T14:08:52Z</time>
      </trkpt>
      <trkpt lat="45.73458" lon="3.00635">
        <ele>942</ele>
        <time>2011-08-08T14:08:55Z</time>
      </trkpt>
      <trkpt lat="45.73457" lon="3.00608">
        <ele>943</ele>
        <time>2011-08-08T14:08:58Z</time>
      </trkpt>
      <trkpt lat="45.73441" lon="3.00555">
        <ele>948</ele>
        <time>2011-08-08T14:09:04Z</time>
      </trkpt>
      <trkpt lat="45.73431" lon="3.0047">
        <ele>950</ele>
        <time>2011-08-08T14:09:13Z</time>
      </trkpt>
      <trkpt lat="45.73401" lon="3.0035">
        <ele>953</ele>
        <time>2011-08-08T14:09:25Z</time>
      </trkpt>
      <trkpt lat="45.73366" lon="3.00277">
        <ele>959</ele>
        <time>2011-08-08T14:09:35Z</time>
      </trkpt>
      <trkpt lat="45.7335" lon="3.00253">
        <ele>960</ele>
        <time>2011-08-08T14:09:42Z</time>
      </trkpt>
      <trkpt lat="45.73323" lon="3.00176">
        <ele>958</ele>
        <time>2011-08-08T14:09:50Z</time>
      </trkpt>
      <trkpt lat="45.73302" lon="3.00155">
        <ele>956</ele>
        <time>2011-08-08T14:09:54Z</time>
      </trkpt>
      <trkpt lat="45.73276" lon="3.00145">
        <ele>955</ele>
        <time>2011-08-08T14:09:58Z</time>
      </trkpt>
      <trkpt lat="45.73234" lon="3.00145">
        <ele>954</ele>
        <time>2011-08-08T14:10:05Z</time>
      </trkpt>
      <trkpt lat="45.73111" lon="3.00119">
        <ele>962</ele>
        <time>2011-08-08T14:10:32Z</time>
      </trkpt>
      <trkpt lat="45.73091" lon="3.00124">
        <ele>966</ele>
        <time>2011-08-08T14:10:45Z</time>
      </trkpt>
      <trkpt lat="45.73074" lon="3.00139">
        <ele>965</ele>
        <time>2011-08-08T14:10:58Z</time>
      </trkpt>
      <trkpt lat="45.73038" lon="3.00197">
        <ele>962</ele>
        <time>2011-08-08T14:11:37Z</time>
      </trkpt>
      <trkpt lat="45.7304" lon="3.00172">
        <ele>967</ele>
        <time>2011-08-08T14:11:52Z</time>
      </trkpt>
      <trkpt lat="45.73049" lon="3.00145">
        <ele>967</ele>
        <time>2011-08-08T14:12:04Z</time>
      </trkpt>
      <trkpt lat="45.73042" lon="3.00053">
        <ele>973</ele>
        <time>2011-08-08T14:12:17Z</time>
      </trkpt>
      <trkpt lat="45.73048" lon="3.00022">
        <ele>974</ele>
        <time>2011-08-08T14:12:21Z</time>
      </trkpt>
      <trkpt lat="45.73091" lon="2.99889">
        <ele>977</ele>
        <time>2011-08-08T14:12:37Z</time>
      </trkpt>
      <trkpt lat="45.73155" lon="2.99732">
        <ele>982</ele>
        <time>2011-08-08T14:12:55Z</time>
      </trkpt>
      <trkpt lat="45.73288" lon="2.99572">
        <ele>990</ele>
        <time>2011-08-08T14:14:12Z</time>
      </trkpt>
      <trkpt lat="45.73419" lon="2.99389">
        <ele>990</ele>
        <time>2011-08-08T14:15:12Z</time>
      </trkpt>
      <trkpt lat="45.73474" lon="2.99291">
        <ele>993</ele>
        <time>2011-08-08T14:15:26Z</time>
      </trkpt>
      <trkpt lat="45.73527" lon="2.99131">
        <ele>996</ele>
        <time>2011-08-08T14:15:45Z</time>
      </trkpt>
      <trkpt lat="45.73615" lon="2.98974">
        <ele>996</ele>
        <time>2011-08-08T14:16:06Z</time>
      </trkpt>
      <trkpt lat="45.73645" lon="2.98883">
        <ele>995</ele>
        <time>2011-08-08T14:16:17Z</time>
      </trkpt>
      <trkpt lat="45.73667" lon="2.98792">
        <ele>996</ele>
        <time>2011-08-08T14:16:40Z</time>
      </trkpt>
      <trkpt lat="45.73675" lon="2.98724">
        <ele>998</ele>
        <time>2011-08-08T14:17:20Z</time>
      </trkpt>
      <trkpt lat="45.73707" lon="2.986">
        <ele>999</ele>
        <time>2011-08-08T14:18:21Z</time>
      </trkpt>
      <trkpt lat="45.73752" lon="2.98505">
        <ele>1000</ele>
        <time>2011-08-08T14:19:09Z</time>
      </trkpt>
      <trkpt lat="45.73806" lon="2.98316">
        <ele>1006</ele>
        <time>2011-08-08T14:20:47Z</time>
      </trkpt>
      <trkpt lat="45.73814" lon="2.9826">
        <ele>1009</ele>
        <time>2011-08-08T14:21:13Z</time>
      </trkpt>
      <trkpt lat="45.73835" lon="2.97994">
        <ele>999</ele>
        <time>2011-08-08T14:23:14Z</time>
      </trkpt>
      <trkpt lat="45.73852" lon="2.97906">
        <ele>994</ele>
        <time>2011-08-08T14:23:55Z</time>
      </trkpt>
      <trkpt lat="45.73856" lon="2.9785">
        <ele>985</ele>
        <time>2011-08-08T14:24:22Z</time>
      </trkpt>
      <trkpt lat="45.73866" lon="2.97715">
        <ele>986</ele>
        <time>2011-08-08T14:25:27Z</time>
      </trkpt>
      <trkpt lat="45.73861" lon="2.97502">
        <ele>977</ele>
        <time>2011-08-08T14:27:08Z</time>
      </trkpt>
      <trkpt lat="45.73859" lon="2.97473">
        <ele>970</ele>
        <time>2011-08-08T14:27:25Z</time>
      </trkpt>
      <trkpt lat="45.73857" lon="2.97439">
        <ele>970</ele>
        <time>2011-08-08T14:27:42Z</time>
      </trkpt>
      <trkpt lat="45.73835" lon="2.97349">
        <ele>967</ele>
        <time>2011-08-08T14:28:23Z</time>
      </trkpt>
      <trkpt lat="45.73834" lon="2.97318">
        <ele>966</ele>
        <time>2011-08-08T14:28:37Z</time>
      </trkpt>
      <trkpt lat="45.73844" lon="2.97258">
        <ele>969</ele>
        <time>2011-08-08T14:29:05Z</time>
      </trkpt>
      <trkpt lat="45.7391" lon="2.97011">
        <ele>977</ele>
        <time>2011-08-08T14:31:09Z</time>
      </trkpt>
      <trkpt lat="45.73922" lon="2.96951">
        <ele>976</ele>
        <time>2011-08-08T14:31:38Z</time>
      </trkpt>
      <trkpt lat="45.73934" lon="2.96922">
        <ele>976</ele>
        <time>2011-08-08T14:31:54Z</time>
      </trkpt>
      <trkpt lat="45.73973" lon="2.96875">
        <ele>975</ele>
        <time>2011-08-08T14:32:30Z</time>
      </trkpt>
      <trkpt lat="45.73989" lon="2.9685">
        <ele>973</ele>
        <time>2011-08-08T14:32:45Z</time>
      </trkpt>
      <trkpt lat="45.74023" lon="2.96729">
        <ele>969</ele>
        <time>2011-08-08T14:33:46Z</time>
      </trkpt>
      <trkpt lat="45.74081" lon="2.9667">
        <ele>964</ele>
        <time>2011-08-08T14:38:48Z</time>
      </trkpt>
      <trkpt lat="45.74069" lon="2.96583">
        <ele>970</ele>
        <time>2011-08-08T14:39:41Z</time>
      </trkpt>
      <trkpt lat="45.74072" lon="2.96555">
        <ele>970</ele>
        <time>2011-08-08T14:39:58Z</time>
      </trkpt>
      <trkpt lat="45.74104" lon="2.96479">
        <ele>974</ele>
        <time>2011-08-08T14:40:51Z</time>
      </trkpt>
      <trkpt lat="45.74155" lon="2.96383">
        <ele>980</ele>
        <time>2011-08-08T14:41:59Z</time>
      </trkpt>
      <trkpt lat="45.74179" lon="2.96295">
        <ele>985</ele>
        <time>2011-08-08T14:42:46Z</time>
      </trkpt>
      <trkpt lat="45.74166" lon="2.96235">
        <ele>988</ele>
        <time>2011-08-08T14:43:18Z</time>
      </trkpt>
      <trkpt lat="45.74164" lon="2.9612">
        <ele>999</ele>
        <time>2011-08-08T14:44:34Z</time>
      </trkpt>
      <trkpt lat="45.74173" lon="2.96134">
        <ele>996</ele>
        <time>2011-08-08T14:45:00Z</time>
      </trkpt>
      <trkpt lat="45.74187" lon="2.96103">
        <ele>994</ele>
        <time>2011-08-08T14:45:22Z</time>
      </trkpt>
      <trkpt lat="45.74194" lon="2.9606">
        <ele>998</ele>
        <time>2011-08-08T14:45:55Z</time>
      </trkpt>
      <trkpt lat="45.74225" lon="2.95996">
        <ele>999</ele>
        <time>2011-08-08T14:46:40Z</time>
      </trkpt>
      <trkpt lat="45.74232" lon="2.95822">
        <ele>1008</ele>
        <time>2011-08-08T14:47:49Z</time>
      </trkpt>
      <trkpt lat="45.74227" lon="2.95782">
        <ele>1010</ele>
        <time>2011-08-08T14:48:00Z</time>
      </trkpt>
      <trkpt lat="45.74228" lon="2.95725">
        <ele>1010</ele>
        <time>2011-08-08T14:48:23Z</time>
      </trkpt>
      <trkpt lat="45.74242" lon="2.95687">
        <ele>1010</ele>
        <time>2011-08-08T14:48:42Z</time>
      </trkpt>
      <trkpt lat="45.74249" lon="2.95617">
        <ele>1011</ele>
        <time>2011-08-08T14:49:05Z</time>
      </trkpt>
      <trkpt lat="45.74263" lon="2.95557">
        <ele>1014</ele>
        <time>2011-08-08T14:49:20Z</time>
      </trkpt>
      <trkpt lat="45.74263" lon="2.95523">
        <ele>1016</ele>
        <time>2011-08-08T14:49:29Z</time>
      </trkpt>
      <trkpt lat="45.74215" lon="2.95287">
        <ele>1032</ele>
        <time>2011-08-08T14:50:18Z</time>
      </trkpt>
      <trkpt lat="45.74204" lon="2.9521">
        <ele>1040</ele>
        <time>2011-08-08T14:50:27Z</time>
      </trkpt>
      <trkpt lat="45.74159" lon="2.95102">
        <ele>1049</ele>
        <time>2011-08-08T14:51:00Z</time>
      </trkpt>
      <trkpt lat="45.74152" lon="2.94972">
        <ele>1055</ele>
        <time>2011-08-08T14:51:16Z</time>
      </trkpt>
      <trkpt lat="45.74133" lon="2.9493">
        <ele>1057</ele>
        <time>2011-08-08T14:51:40Z</time>
      </trkpt>
      <trkpt lat="45.74135" lon="2.94907">
        <ele>1060</ele>
        <time>2011-08-08T14:52:13Z</time>
      </trkpt>
      <trkpt lat="45.74155" lon="2.94877">
        <ele>1061</ele>
        <time>2011-08-08T14:52:52Z</time>
      </trkpt>
      <trkpt lat="45.74164" lon="2.9485">
        <ele>1059</ele>
        <time>2011-08-08T14:53:06Z</time>
      </trkpt>
      <trkpt lat="45.74181" lon="2.94685">
        <ele>1051</ele>
        <time>2011-08-08T14:54:18Z</time>
      </trkpt>
      <trkpt lat="45.74175" lon="2.94558">
        <ele>1044</ele>
        <time>2011-08-08T14:55:14Z</time>
      </trkpt>
      <trkpt lat="45.74185" lon="2.94498">
        <ele>1042</ele>
        <time>2011-08-08T14:55:28Z</time>
      </trkpt>
      <trkpt lat="45.74183" lon="2.94439">
        <ele>1040</ele>
        <time>2011-08-08T14:57:20Z</time>
      </trkpt>
      <trkpt lat="45.74196" lon="2.94379">
        <ele>1034</ele>
        <time>2011-08-08T14:57:39Z</time>
      </trkpt>
      <trkpt lat="45.74199" lon="2.94309">
        <ele>1031</ele>
        <time>2011-08-08T14:58:05Z</time>
      </trkpt>
      <trkpt lat="45.74206" lon="2.94277">
        <ele>1027</ele>
        <time>2011-08-08T14:58:21Z</time>
      </trkpt>
      <trkpt lat="45.74216" lon="2.94173">
        <ele>1022</ele>
        <time>2011-08-08T14:59:07Z</time>
      </trkpt>
      <trkpt lat="45.74237" lon="2.9407">
        <ele>1018</ele>
        <time>2011-08-08T14:59:48Z</time>
      </trkpt>
      <trkpt lat="45.74252" lon="2.94072">
        <ele>1017</ele>
        <time>2011-08-08T15:00:04Z</time>
      </trkpt>
      <trkpt lat="45.7428" lon="2.9421">
        <ele>1022</ele>
        <time>2011-08-08T15:01:12Z</time>
      </trkpt>
      <trkpt lat="45.74301" lon="2.94222">
        <ele>1024</ele>
        <time>2011-08-08T15:01:36Z</time>
      </trkpt>
      <trkpt lat="45.74305" lon="2.94169">
        <ele>1020</ele>
        <time>2011-08-08T15:02:04Z</time>
      </trkpt>
      <trkpt lat="45.74318" lon="2.94133">
        <ele>1014</ele>
        <time>2011-08-08T15:02:19Z</time>
      </trkpt>
      <trkpt lat="45.74388" lon="2.94006">
        <ele>994</ele>
        <time>2011-08-08T15:03:02Z</time>
      </trkpt>
      <trkpt lat="45.74398" lon="2.93967">
        <ele>989</ele>
        <time>2011-08-08T15:03:15Z</time>
      </trkpt>
      <trkpt lat="45.74382" lon="2.93925">
        <ele>987</ele>
        <time>2011-08-08T15:03:32Z</time>
      </trkpt>
      <trkpt lat="45.7445" lon="2.93396">
        <ele>976</ele>
        <time>2011-08-08T15:06:24Z</time>
      </trkpt>
      <trkpt lat="45.74541" lon="2.9348">
        <ele>976</ele>
        <time>2011-08-08T15:06:49Z</time>
      </trkpt>
      <trkpt lat="45.7462" lon="2.93545">
        <ele>977</ele>
        <time>2011-08-08T15:07:05Z</time>
      </trkpt>
      <trkpt lat="45.7464" lon="2.93611">
        <ele>978</ele>
        <time>2011-08-08T15:07:23Z</time>
      </trkpt>
      <trkpt lat="45.74675" lon="2.93663">
        <ele>975</ele>
        <time>2011-08-08T15:07:40Z</time>
      </trkpt>
      <trkpt lat="45.74829" lon="2.93695">
        <ele>977</ele>
        <time>2011-08-08T15:08:15Z</time>
      </trkpt>
      <trkpt lat="45.74799" lon="2.93672">
        <ele>978</ele>
        <time>2011-08-08T15:08:22Z</time>
      </trkpt>
      <trkpt lat="45.74754" lon="2.93626">
        <ele>974</ele>
        <time>2011-08-08T15:08:32Z</time>
      </trkpt>
      <trkpt lat="45.74701" lon="2.93588">
        <ele>975</ele>
        <time>2011-08-08T15:08:39Z</time>
      </trkpt>
      <trkpt lat="45.74659" lon="2.93544">
        <ele>979</ele>
        <time>2011-08-08T15:08:48Z</time>
      </trkpt>
      <trkpt lat="45.74634" lon="2.93526">
        <ele>976</ele>
        <time>2011-08-08T15:08:53Z</time>
      </trkpt>
      <trkpt lat="45.74607" lon="2.93495">
        <ele>976</ele>
        <time>2011-08-08T15:08:58Z</time>
      </trkpt>
      <trkpt lat="45.74533" lon="2.93447">
        <ele>979</ele>
        <time>2011-08-08T15:09:08Z</time>
      </trkpt>
      <trkpt lat="45.74476" lon="2.93422">
        <ele>975</ele>
        <time>2011-08-08T15:09:22Z</time>
      </trkpt>
      <trkpt lat="45.74436" lon="2.93394">
        <ele>976</ele>
        <time>2011-08-08T15:09:50Z</time>
      </trkpt>
      <trkpt lat="45.7443" lon="2.9336">
        <ele>978</ele>
        <time>2011-08-08T15:10:12Z</time>
      </trkpt>
      <trkpt lat="45.74433" lon="2.93267">
        <ele>975</ele>
        <time>2011-08-08T15:11:08Z</time>
      </trkpt>
      <trkpt lat="45.74413" lon="2.93097">
        <ele>969</ele>
        <time>2011-08-08T15:13:41Z</time>
      </trkpt>
      <trkpt lat="45.74395" lon="2.9302">
        <ele>967</ele>
        <time>2011-08-08T15:14:19Z</time>
      </trkpt>
      <trkpt lat="45.74391" lon="2.9297">
        <ele>967</ele>
        <time>2011-08-08T15:14:44Z</time>
      </trkpt>
      <trkpt lat="45.74319" lon="2.92732">
        <ele>963</ele>
        <time>2011-08-08T15:16:47Z</time>
      </trkpt>
      <trkpt lat="45.74274" lon="2.9257">
        <ele>959</ele>
        <time>2011-08-08T15:18:04Z</time>
      </trkpt>
      <trkpt lat="45.74288" lon="2.9252">
        <ele>959</ele>
        <time>2011-08-08T15:18:36Z</time>
      </trkpt>
      <trkpt lat="45.74317" lon="2.92505">
        <ele>959</ele>
        <time>2011-08-08T15:18:57Z</time>
      </trkpt>
      <trkpt lat="45.74344" lon="2.92501">
        <ele>957</ele>
        <time>2011-08-08T15:19:14Z</time>
      </trkpt>
      <trkpt lat="45.74358" lon="2.92534">
        <ele>960</ele>
        <time>2011-08-08T15:20:12Z</time>
      </trkpt>
      <trkpt lat="45.74356" lon="2.92495">
        <ele>960</ele>
        <time>2011-08-08T15:20:45Z</time>
      </trkpt>
      <trkpt lat="45.74379" lon="2.92522">
        <ele>958</ele>
        <time>2011-08-08T15:21:07Z</time>
      </trkpt>
      <trkpt lat="45.7441" lon="2.92533">
        <ele>960</ele>
        <time>2011-08-08T15:21:27Z</time>
      </trkpt>
      <trkpt lat="45.74615" lon="2.92591">
        <ele>960</ele>
        <time>2011-08-08T15:22:06Z</time>
      </trkpt>
      <trkpt lat="45.74756" lon="2.9263">
        <ele>943</ele>
        <time>2011-08-08T15:23:32Z</time>
      </trkpt>
      <trkpt lat="45.74858" lon="2.92666">
        <ele>936</ele>
        <time>2011-08-08T15:24:40Z</time>
      </trkpt>
      <trkpt lat="45.7509" lon="2.92739">
        <ele>935</ele>
        <time>2011-08-08T15:27:18Z</time>
      </trkpt>
      <trkpt lat="45.75118" lon="2.92742">
        <ele>936</ele>
        <time>2011-08-08T15:27:38Z</time>
      </trkpt>
      <trkpt lat="45.75158" lon="2.92763">
        <ele>936</ele>
        <time>2011-08-08T15:28:06Z</time>
      </trkpt>
      <trkpt lat="45.75244" lon="2.9279">
        <ele>937</ele>
        <time>2011-08-08T15:28:56Z</time>
      </trkpt>
      <trkpt lat="45.75263" lon="2.9271">
        <ele>935</ele>
        <time>2011-08-08T15:29:36Z</time>
      </trkpt>
      <trkpt lat="45.75262" lon="2.92675">
        <ele>935</ele>
        <time>2011-08-08T15:29:55Z</time>
      </trkpt>
      <trkpt lat="45.75282" lon="2.92696">
        <ele>937</ele>
        <time>2011-08-08T15:30:14Z</time>
      </trkpt>
      <trkpt lat="45.75296" lon="2.92721">
        <ele>938</ele>
        <time>2011-08-08T15:30:26Z</time>
      </trkpt>
      <trkpt lat="45.75305" lon="2.9272">
        <ele>939</ele>
        <time>2011-08-08T15:31:08Z</time>
      </trkpt>
      <trkpt lat="45.7532" lon="2.9266">
        <ele>938</ele>
        <time>2011-08-08T15:31:32Z</time>
      </trkpt>
      <trkpt lat="45.75333" lon="2.92632">
        <ele>937</ele>
        <time>2011-08-08T15:31:37Z</time>
      </trkpt>
      <trkpt lat="45.75362" lon="2.92509">
        <ele>935</ele>
        <time>2011-08-08T15:31:54Z</time>
      </trkpt>
      <trkpt lat="45.75379" lon="2.92352">
        <ele>926</ele>
        <time>2011-08-08T15:32:23Z</time>
      </trkpt>
      <trkpt lat="45.75394" lon="2.92319">
        <ele>922</ele>
        <time>2011-08-08T15:32:36Z</time>
      </trkpt>
      <trkpt lat="45.75412" lon="2.92295">
        <ele>915</ele>
        <time>2011-08-08T15:32:46Z</time>
      </trkpt>
      <trkpt lat="45.75435" lon="2.92286">
        <ele>912</ele>
        <time>2011-08-08T15:32:51Z</time>
      </trkpt>
      <trkpt lat="45.75459" lon="2.92267">
        <ele>910</ele>
        <time>2011-08-08T15:32:55Z</time>
      </trkpt>
      <trkpt lat="45.75495" lon="2.92211">
        <ele>908</ele>
        <time>2011-08-08T15:33:01Z</time>
      </trkpt>
      <trkpt lat="45.75589" lon="2.91921">
        <ele>899</ele>
        <time>2011-08-08T15:33:23Z</time>
      </trkpt>
      <trkpt lat="45.75626" lon="2.91772">
        <ele>899</ele>
        <time>2011-08-08T15:33:34Z</time>
      </trkpt>
      <trkpt lat="45.7563" lon="2.91707">
        <ele>900</ele>
        <time>2011-08-08T15:33:39Z</time>
      </trkpt>
      <trkpt lat="45.75688" lon="2.91647">
        <ele>897</ele>
        <time>2011-08-08T15:33:50Z</time>
      </trkpt>
      <trkpt lat="45.75765" lon="2.91605">
        <ele>888</ele>
        <time>2011-08-08T15:34:02Z</time>
      </trkpt>
      <trkpt lat="45.75821" lon="2.91537">
        <ele>884</ele>
        <time>2011-08-08T15:34:11Z</time>
      </trkpt>
      <trkpt lat="45.75876" lon="2.91482">
        <ele>884</ele>
        <time>2011-08-08T15:34:20Z</time>
      </trkpt>
      <trkpt lat="45.75955" lon="2.91335">
        <ele>879</ele>
        <time>2011-08-08T15:34:52Z</time>
      </trkpt>
      <trkpt lat="45.76003" lon="2.91321">
        <ele>874</ele>
        <time>2011-08-08T15:35:16Z</time>
      </trkpt>
      <trkpt lat="45.76039" lon="2.91202">
        <ele>869</ele>
        <time>2011-08-08T15:35:29Z</time>
      </trkpt>
      <trkpt lat="45.76071" lon="2.91121">
        <ele>867</ele>
        <time>2011-08-08T15:35:38Z</time>
      </trkpt>
      <trkpt lat="45.76108" lon="2.9097">
        <ele>865</ele>
        <time>2011-08-08T15:35:53Z</time>
      </trkpt>
      <trkpt lat="45.76131" lon="2.90924">
        <ele>864</ele>
        <time>2011-08-08T15:36:03Z</time>
      </trkpt>
      <trkpt lat="45.76161" lon="2.90886">
        <ele>859</ele>
        <time>2011-08-08T15:36:29Z</time>
      </trkpt>
      <trkpt lat="45.76187" lon="2.90807">
        <ele>852</ele>
        <time>2011-08-08T15:37:07Z</time>
      </trkpt>
      <trkpt lat="45.762" lon="2.90784">
        <ele>849</ele>
        <time>2011-08-08T15:37:25Z</time>
      </trkpt>
      <trkpt lat="45.76186" lon="2.90728">
        <ele>848</ele>
        <time>2011-08-08T15:37:52Z</time>
      </trkpt>
      <trkpt lat="45.76161" lon="2.90685">
        <ele>848</ele>
        <time>2011-08-08T15:38:21Z</time>
      </trkpt>
      <trkpt lat="45.76152" lon="2.90655">
        <ele>848</ele>
        <time>2011-08-08T15:38:34Z</time>
      </trkpt>
      <trkpt lat="45.76125" lon="2.90539">
        <ele>848</ele>
        <time>2011-08-08T15:39:33Z</time>
      </trkpt>
      <trkpt lat="45.76113" lon="2.90518">
        <ele>848</ele>
        <time>2011-08-08T15:39:46Z</time>
      </trkpt>
      <trkpt lat="45.76097" lon="2.90505">
        <ele>849</ele>
        <time>2011-08-08T15:39:59Z</time>
      </trkpt>
      <trkpt lat="45.76088" lon="2.90381">
        <ele>846</ele>
        <time>2011-08-08T15:40:58Z</time>
      </trkpt>
      <trkpt lat="45.76042" lon="2.9032">
        <ele>845</ele>
        <time>2011-08-08T15:42:06Z</time>
      </trkpt>
      <trkpt lat="45.76039" lon="2.90296">
        <ele>844</ele>
        <time>2011-08-08T15:42:22Z</time>
      </trkpt>
      <trkpt lat="45.76082" lon="2.90153">
        <ele>831</ele>
        <time>2011-08-08T15:43:50Z</time>
      </trkpt>
      <trkpt lat="45.76105" lon="2.901">
        <ele>825</ele>
        <time>2011-08-08T15:44:19Z</time>
      </trkpt>
      <trkpt lat="45.76221" lon="2.89912">
        <ele>800</ele>
        <time>2011-08-08T15:46:29Z</time>
      </trkpt>
      <trkpt lat="45.76256" lon="2.89875">
        <ele>794</ele>
        <time>2011-08-08T15:46:56Z</time>
      </trkpt>
      <trkpt lat="45.76321" lon="2.89838">
        <ele>788</ele>
        <time>2011-08-08T15:47:42Z</time>
      </trkpt>
      <trkpt lat="45.76332" lon="2.89814">
        <ele>786</ele>
        <time>2011-08-08T15:47:56Z</time>
      </trkpt>
      <trkpt lat="45.76337" lon="2.89783">
        <ele>784</ele>
        <time>2011-08-08T15:48:09Z</time>
      </trkpt>
      <trkpt lat="45.76335" lon="2.8973">
        <ele>782</ele>
        <time>2011-08-08T15:48:40Z</time>
      </trkpt>
      <trkpt lat="45.7635" lon="2.89715">
        <ele>782</ele>
        <time>2011-08-08T15:48:55Z</time>
      </trkpt>
      <trkpt lat="45.76369" lon="2.89652">
        <ele>781</ele>
        <time>2011-08-08T15:51:11Z</time>
      </trkpt>
      <trkpt lat="45.76367" lon="2.89628">
        <ele>780</ele>
        <time>2011-08-08T15:51:31Z</time>
      </trkpt>
      <trkpt lat="45.76288" lon="2.8966">
        <ele>782</ele>
        <time>2011-08-08T15:52:22Z</time>
      </trkpt>
      <trkpt lat="45.76271" lon="2.89657">
        <ele>783</ele>
        <time>2011-08-08T15:52:35Z</time>
      </trkpt>
      <trkpt lat="45.76274" lon="2.8963">
        <ele>781</ele>
        <time>2011-08-08T15:52:48Z</time>
      </trkpt>
      <trkpt lat="45.76263" lon="2.89603">
        <ele>782</ele>
        <time>2011-08-08T15:53:02Z</time>
      </trkpt>
      <trkpt lat="45.76256" lon="2.89604">
        <ele>780</ele>
        <time>2011-08-08T15:53:26Z</time>
      </trkpt>
      <trkpt lat="45.76258" lon="2.89601">
        <ele>844</ele>
        <time>2011-08-09T08:39:19Z</time>
      </trkpt>
      <trkpt lat="45.76258" lon="2.89591">
        <ele>778</ele>
        <time>2011-08-09T08:39:53Z</time>
      </trkpt>
    </trkseg>
  </trk>
</gpx>